Terminal Aerodrome Forecast
Issued by NWS

Home | Current Version | Previous Version | Text Only | Print | Product List | Glossary On
Versions: 1 2 3 4 5 6 7 8 9 10 11 12 13 14 15 16 17
000
FTUS41 KRNK 231135
TAFLWB
TAF
KLWB 231135Z 2312/2412 05004KT P6SM OVC030
     FM231600 10006KT P6SM -RA OVC020
      TEMPO 2316/2320 2SM RA BR OVC007
     FM232300 09005KT 5SM RA BR OVC020
     FM240600 08006KT 5SM -RA BR OVC020=

USA.gov is the U.S. government's official web portal to all federal, state and local government web resources and services.